createdAt,value
2019-03-16T00:00:54.366Z,98.70
2019-03-16T00:03:22.751Z,98.70
2019-03-16T00:05:51.129Z,98.70
2019-03-16T00:08:19.516Z,98.60
2019-03-16T00:10:47.887Z,98.60
2019-03-16T00:13:16.474Z,98.60
2019-03-16T00:15:45.030Z,98.50
2019-03-16T00:18:13.429Z,98.50
2019-03-16T00:20:41.795Z,98.60
2019-03-16T00:23:10.505Z,98.60
2019-03-16T00:25:38.883Z,98.60
2019-03-16T00:28:07.306Z,98.60
2019-03-16T00:30:35.695Z,98.60
2019-03-16T00:33:04.089Z,98.60
2019-03-16T00:35:32.474Z,98.60
2019-03-16T00:38:00.864Z,98.60
2019-03-16T00:40:29.236Z,98.60
2019-03-16T00:42:57.631Z,98.70
2019-03-16T00:45:26.005Z,98.70
2019-03-16T00:47:54.405Z,98.80
2019-03-16T00:50:22.785Z,98.80
2019-03-16T00:52:51.172Z,98.80
2019-03-16T00:55:19.563Z,98.90
2019-03-16T00:57:48.092Z,98.90
2019-03-16T01:00:19.318Z,98.90
2019-03-16T01:02:47.700Z,98.90
2019-03-16T01:05:16.228Z,98.90
2019-03-16T01:07:44.627Z,99.00
2019-03-16T01:10:13.003Z,99.10
2019-03-16T01:12:41.383Z,99.00
2019-03-16T01:15:11.817Z,99.10
2019-03-16T01:17:40.192Z,99.30
2019-03-16T01:20:10.525Z,99.20
2019-03-16T01:22:38.908Z,99.20
2019-03-16T01:25:08.445Z,99.10
2019-03-16T01:27:36.856Z,99.30
2019-03-16T01:30:08.664Z,99.30
2019-03-16T01:32:40.929Z,99.30
2019-03-16T01:35:07.239Z,99.20
2019-03-16T01:37:35.631Z,99.30
2019-03-16T01:40:05.661Z,99.40
2019-03-16T01:42:34.052Z,99.40
2019-03-16T01:45:02.443Z,99.30
2019-03-16T01:47:30.829Z,99.30
2019-03-16T01:49:59.219Z,99.40
2019-03-16T01:52:27.614Z,99.40
2019-03-16T01:54:56.004Z,99.40
2019-03-16T01:57:24.391Z,99.30
2019-03-16T01:59:52.788Z,99.20
2019-03-16T02:02:21.167Z,99.30
2019-03-16T02:04:49.560Z,99.50
2019-03-16T02:07:17.948Z,99.50
2019-03-16T02:09:46.340Z,99.30
2019-03-16T02:12:14.806Z,99.40
2019-03-16T02:14:43.200Z,99.50
2019-03-16T02:17:11.571Z,99.50
2019-03-16T02:19:39.969Z,99.50
2019-03-16T02:22:08.354Z,99.40
2019-03-16T02:24:36.744Z,99.30
2019-03-16T02:27:05.137Z,99.50
2019-03-16T02:29:33.527Z,99.30
2019-03-16T02:32:01.941Z,99.40
2019-03-16T02:34:30.328Z,99.20
2019-03-16T02:36:58.713Z,99.70
2019-03-16T02:39:27.111Z,99.50
2019-03-16T02:41:55.488Z,99.30
2019-03-16T02:44:23.884Z,99.20
2019-03-16T02:46:52.278Z,99.50
2019-03-16T02:49:20.647Z,99.50
2019-03-16T02:51:49.046Z,99.70
2019-03-16T02:54:17.434Z,99.60
2019-03-16T02:56:46.006Z,99.60
2019-03-16T02:59:14.641Z,99.70
2019-03-16T03:01:43.029Z,99.80
2019-03-16T03:04:11.410Z,99.70
2019-03-16T03:06:39.817Z,99.70
2019-03-16T03:09:08.794Z,99.70
2019-03-16T03:11:37.244Z,99.60
2019-03-16T03:14:05.624Z,99.70
2019-03-16T03:16:34.063Z,99.80
2019-03-16T03:19:02.492Z,99.70
2019-03-16T03:21:30.881Z,99.90
2019-03-16T03:24:14.568Z,99.70
2019-03-16T03:26:42.972Z,99.90
2019-03-16T03:29:11.350Z,99.70
2019-03-16T03:34:50.328Z,99.80
2019-03-16T03:37:18.785Z,99.90
2019-03-16T03:39:47.161Z,99.90
2019-03-16T03:42:15.891Z,99.90
2019-03-16T03:44:44.285Z,99.90
2019-03-16T03:47:12.664Z,99.90
2019-03-16T03:49:41.057Z,99.90
2019-03-16T03:52:09.464Z,99.90
2019-03-16T03:54:37.845Z,99.90
2019-03-16T03:57:06.248Z,99.90
2019-03-16T03:59:34.621Z,99.90
2019-03-16T04:02:03.010Z,99.80
2019-03-16T04:04:31.423Z,99.70
2019-03-16T04:06:59.852Z,99.90
2019-03-16T04:09:28.236Z,99.80
2019-03-16T04:11:56.641Z,99.80
2019-03-16T04:14:25.019Z,99.80
2019-03-16T04:16:53.408Z,99.80
2019-03-16T04:19:21.819Z,99.90
2019-03-16T04:21:50.251Z,99.90
2019-03-16T04:24:18.629Z,99.90
2019-03-16T04:26:47.019Z,99.90
2019-03-16T04:29:15.410Z,99.90
2019-03-16T04:31:43.803Z,99.90
2019-03-16T04:34:12.184Z,99.90
2019-03-16T04:36:40.578Z,99.70
2019-03-16T04:39:09.034Z,99.70
2019-03-16T04:41:37.448Z,99.60
2019-03-16T04:44:05.833Z,99.40
2019-03-16T04:46:34.223Z,99.50
2019-03-16T04:49:02.611Z,99.70
2019-03-16T04:51:30.992Z,99.30
2019-03-16T04:54:00.348Z,99.20
2019-03-16T04:56:48.156Z,99.20
2019-03-16T04:59:16.536Z,99.20
2019-03-16T05:01:44.934Z,99.40
2019-03-16T05:04:13.312Z,99.10
2019-03-16T05:06:41.696Z,99.00
2019-03-16T05:09:10.092Z,99.10
2019-03-16T05:11:38.472Z,99.10
2019-03-16T05:14:06.866Z,99.00
2019-03-16T05:16:35.271Z,99.00
2019-03-16T05:19:03.914Z,98.90
2019-03-16T05:21:32.305Z,98.70
2019-03-16T05:24:02.876Z,98.80
2019-03-16T05:26:30.804Z,98.60
2019-03-16T05:28:59.195Z,99.30
2019-03-16T05:31:27.572Z,98.90
2019-03-16T05:33:55.980Z,98.80
2019-03-16T05:36:24.363Z,98.80
2019-03-16T05:38:52.773Z,98.60
2019-03-16T05:41:21.150Z,98.70
2019-03-16T05:43:49.539Z,98.80
2019-03-16T05:46:17.930Z,98.70
2019-03-16T05:48:46.316Z,98.70
2019-03-16T05:51:14.705Z,98.50
2019-03-16T05:53:43.091Z,98.50
2019-03-16T05:56:11.477Z,97.90
2019-03-16T05:58:39.879Z,98.30
2019-03-16T06:01:08.252Z,98.40
2019-03-16T06:03:36.647Z,97.70
2019-03-16T06:06:05.027Z,98.00
2019-03-16T06:08:33.432Z,98.30
2019-03-16T06:11:01.827Z,98.00
2019-03-16T06:13:30.219Z,98.20
2019-03-16T06:15:58.600Z,98.00
2019-03-16T06:18:26.987Z,97.90
2019-03-16T06:20:55.385Z,97.90
2019-03-16T06:23:23.776Z,97.90
2019-03-16T06:25:52.175Z,97.60
2019-03-16T06:28:20.567Z,98.10
2019-03-16T06:30:48.951Z,97.70
2019-03-16T06:33:17.327Z,97.10
2019-03-16T06:35:45.733Z,97.90
2019-03-16T06:38:14.112Z,97.30
2019-03-16T06:40:42.503Z,97.30
2019-03-16T06:43:10.890Z,98.10
2019-03-16T06:45:39.352Z,96.60
2019-03-16T06:48:07.741Z,97.20
2019-03-16T06:50:36.145Z,97.50
2019-03-16T06:53:04.524Z,97.10
2019-03-16T06:55:32.912Z,98.00
2019-03-16T06:58:01.577Z,97.70
2019-03-16T07:00:29.969Z,97.30
2019-03-16T07:02:58.356Z,96.60
2019-03-16T07:05:37.534Z,97.10
2019-03-16T07:07:56.840Z,96.60
2019-03-16T07:10:25.236Z,96.30
2019-03-16T07:12:53.624Z,96.40
2019-03-16T07:15:22.057Z,97.30
2019-03-16T07:17:50.487Z,97.20
2019-03-16T07:20:18.868Z,95.60
2019-03-16T07:22:47.535Z,96.90
2019-03-16T07:25:16.217Z,94.50
2019-03-16T07:27:44.596Z,95.60
2019-03-16T07:30:14.792Z,95.60
2019-03-16T07:32:43.173Z,95.40
2019-03-16T07:35:11.555Z,95.90
2019-03-16T07:37:40.277Z,95.90
2019-03-16T07:40:12.881Z,95.20
2019-03-16T07:42:41.267Z,94.90
2019-03-16T07:46:03.885Z,95.10
2019-03-16T07:48:32.273Z,94.80
2019-03-16T07:51:00.665Z,94.60
2019-03-16T07:53:29.059Z,95.70
2019-03-16T07:55:57.452Z,96.00
2019-03-16T07:58:25.838Z,95.70
2019-03-16T08:00:54.228Z,95.90
2019-03-16T08:03:22.665Z,95.00
2019-03-16T08:05:51.083Z,94.30
2019-03-16T08:08:19.464Z,94.60
2019-03-16T08:10:47.857Z,95.40
2019-03-16T08:13:16.236Z,94.80
2019-03-16T08:15:44.640Z,96.00
2019-03-16T08:18:13.022Z,94.30
2019-03-16T08:20:41.416Z,95.40
2019-03-16T08:23:09.796Z,95.30
2019-03-16T08:25:38.201Z,94.70
2019-03-16T08:28:06.596Z,95.40
2019-03-16T08:30:34.996Z,95.20
2019-03-16T08:33:03.387Z,95.20
2019-03-16T08:35:31.828Z,94.90
2019-03-16T08:38:00.214Z,95.10
2019-03-16T08:40:28.609Z,95.10
2019-03-16T08:42:56.996Z,94.40
2019-03-16T08:45:25.400Z,95.30
2019-03-16T08:47:53.792Z,95.50
2019-03-16T08:50:22.168Z,95.70
2019-03-16T08:52:53.529Z,95.50
2019-03-16T08:55:20.669Z,95.90
2019-03-16T08:57:49.122Z,95.60
2019-03-16T09:00:17.512Z,95.80
2019-03-16T09:02:45.904Z,95.90
2019-03-16T09:05:15.343Z,96.00
2019-03-16T09:07:43.722Z,96.30
2019-03-16T09:10:12.537Z,96.50
2019-03-16T09:12:53.951Z,96.60
2019-03-16T09:15:15.760Z,96.90
2019-03-16T09:17:44.156Z,96.80
2019-03-16T09:20:12.541Z,96.90
2019-03-16T09:22:40.938Z,96.90
2019-03-16T09:25:10.335Z,96.70
2019-03-16T09:27:38.998Z,96.60
2019-03-16T09:30:10.791Z,96.50
2019-03-16T09:32:39.176Z,96.80
2019-03-16T09:35:07.628Z,95.90
2019-03-16T09:37:36.030Z,95.80
2019-03-16T09:40:06.358Z,96.30
2019-03-16T09:42:34.858Z,95.90
2019-03-16T09:45:03.284Z,95.70
2019-03-16T09:47:31.702Z,96.10
2019-03-16T09:50:00.120Z,95.00
2019-03-16T09:52:28.755Z,95.00
2019-03-16T09:54:57.143Z,95.50
2019-03-16T09:57:25.534Z,95.30
2019-03-16T09:59:53.916Z,95.10
2019-03-16T10:02:22.304Z,94.80
2019-03-16T10:04:50.689Z,94.90
2019-03-16T10:07:19.091Z,95.60
2019-03-16T10:09:47.478Z,94.80
2019-03-16T10:12:15.901Z,94.90
2019-03-16T10:14:44.332Z,94.40
2019-03-16T10:17:12.758Z,95.00
2019-03-16T10:19:41.178Z,94.40
2019-03-16T10:22:09.592Z,94.70
2019-03-16T10:24:37.976Z,94.30
2019-03-16T10:27:06.362Z,93.60
2019-03-16T10:29:34.766Z,93.40
2019-03-16T10:32:03.149Z,93.70
2019-03-16T10:34:31.570Z,93.40
2019-03-16T10:36:59.944Z,93.20
2019-03-16T10:39:28.337Z,92.40
2019-03-16T10:41:56.737Z,92.30
2019-03-16T10:44:25.137Z,92.60
2019-03-16T10:46:53.526Z,91.40
2019-03-16T10:49:21.918Z,93.00
2019-03-16T10:51:50.326Z,92.10
2019-03-16T10:54:18.718Z,91.50
2019-03-16T10:56:47.133Z,92.50
2019-03-16T10:59:15.547Z,91.10
2019-03-16T11:01:43.948Z,91.40
2019-03-16T11:04:12.329Z,90.80
2019-03-16T11:06:40.712Z,91.00
2019-03-16T11:09:09.116Z,91.60
2019-03-16T11:11:37.540Z,92.20
2019-03-16T11:14:05.970Z,91.40
2019-03-16T11:16:34.360Z,92.10
2019-03-16T11:19:02.748Z,91.80
2019-03-16T11:21:31.136Z,91.60
2019-03-16T11:23:59.523Z,91.10
2019-03-16T11:26:27.935Z,89.50
2019-03-16T11:29:04.544Z,90.90
2019-03-16T11:31:26.418Z,90.90
2019-03-16T11:33:55.140Z,91.60
2019-03-16T11:36:23.536Z,90.80
2019-03-16T11:38:51.915Z,90.50
2019-03-16T11:41:20.324Z,90.90
2019-03-16T11:43:48.709Z,91.90
2019-03-16T11:46:17.099Z,91.50
2019-03-16T11:48:45.485Z,89.20
2019-03-16T11:51:13.876Z,91.00
2019-03-16T11:53:42.257Z,91.00
2019-03-16T11:56:17.885Z,90.90
2019-03-16T11:58:40.751Z,91.30
2019-03-16T12:01:09.153Z,90.40
2019-03-16T12:03:37.553Z,90.80
2019-03-16T12:06:05.961Z,90.70
2019-03-16T12:08:36.052Z,91.20
2019-03-16T12:11:04.513Z,90.70
2019-03-16T12:13:32.930Z,88.10
2019-03-16T12:16:01.304Z,85.50
2019-03-16T12:18:29.689Z,88.20
2019-03-16T12:20:58.093Z,84.30
2019-03-16T12:23:26.472Z,88.90
2019-03-16T12:25:54.860Z,87.80
2019-03-16T12:28:23.252Z,83.90
2019-03-16T12:30:51.636Z,86.90
2019-03-16T12:33:20.085Z,83.80
2019-03-16T12:35:48.583Z,89.70
2019-03-16T12:38:16.962Z,83.30
2019-03-16T12:40:45.344Z,88.90
2019-03-16T12:43:13.794Z,83.10
2019-03-16T12:45:42.176Z,80.30
2019-03-16T12:48:10.576Z,83.70
2019-03-16T12:50:38.958Z,81.20
2019-03-16T12:53:07.426Z,79.40
2019-03-16T12:55:35.862Z,83.90
2019-03-16T12:58:04.258Z,84.70
2019-03-16T13:00:32.657Z,83.40
2019-03-16T13:03:01.045Z,83.40
2019-03-16T13:05:29.440Z,84.50
2019-03-16T13:07:57.829Z,81.70
2019-03-16T13:10:26.197Z,82.00
2019-03-16T13:12:54.588Z,81.20
2019-03-16T13:15:22.967Z,83.60
2019-03-16T13:17:51.361Z,83.20
2019-03-16T13:20:19.753Z,82.50
2019-03-16T13:22:48.152Z,81.40
2019-03-16T13:25:16.618Z,83.90
2019-03-16T13:27:45.013Z,83.30
2019-03-16T13:30:20.506Z,83.60
2019-03-16T13:32:48.960Z,83.90
2019-03-16T13:35:17.355Z,84.90
2019-03-16T13:37:45.811Z,83.70
2019-03-16T13:40:16.403Z,81.50
2019-03-16T13:42:44.023Z,83.80
2019-03-16T13:45:12.430Z,82.00
2019-03-16T13:47:40.803Z,83.10
2019-03-16T13:50:12.650Z,84.50
2019-03-16T13:52:41.203Z,84.70
2019-03-16T13:55:10.133Z,85.80
2019-03-16T13:57:38.548Z,86.50
2019-03-16T14:00:12.162Z,84.80
2019-03-16T14:02:40.512Z,82.50
2019-03-16T14:05:08.976Z,81.80
2019-03-16T14:07:37.750Z,81.20
2019-03-16T14:10:17.539Z,80.80
2019-03-16T14:12:45.920Z,85.60
2019-03-16T14:15:14.384Z,82.70
2019-03-16T14:17:43.180Z,81.20
2019-03-16T14:20:14.821Z,82.20
2019-03-16T14:22:43.298Z,80.80
2019-03-16T14:25:11.769Z,81.80
2019-03-16T14:27:40.144Z,83.30
2019-03-16T14:30:25.212Z,82.70
2019-03-16T14:32:41.547Z,83.40
2019-03-16T14:35:09.943Z,82.10
2019-03-16T14:37:38.319Z,81.60
2019-03-16T14:40:16.306Z,82.50
2019-03-16T14:42:45.022Z,81.70
2019-03-16T14:45:14.629Z,84.20
2019-03-16T14:47:43.025Z,84.70
2019-03-16T14:50:19.831Z,83.90
2019-03-16T14:52:48.201Z,83.60
2019-03-16T14:55:16.596Z,80.60
2019-03-16T14:57:44.975Z,84.10
2019-03-16T15:00:15.209Z,84.30
2019-03-16T15:02:46.156Z,85.80
2019-03-16T15:05:13.882Z,82.10
2019-03-16T15:07:42.259Z,83.30
2019-03-16T15:10:12.300Z,84.60
2019-03-16T15:12:40.720Z,82.30
2019-03-16T15:15:14.218Z,84.90
2019-03-16T15:17:42.605Z,85.40
2019-03-16T15:20:11.890Z,83.10
2019-03-16T15:22:40.314Z,85.00
2019-03-16T15:25:11.395Z,83.50
2019-03-16T15:27:39.904Z,86.20
2019-03-16T15:30:17.351Z,84.70
2019-03-16T15:32:45.732Z,85.60
2019-03-16T15:35:14.121Z,81.90
2019-03-16T15:37:42.504Z,83.00
2019-03-16T15:40:13.091Z,82.60
2019-03-16T15:42:40.705Z,85.10
2019-03-16T15:45:12.157Z,82.60
2019-03-16T15:47:40.544Z,86.10
2019-03-16T15:50:09.398Z,85.80
2019-03-16T15:52:37.928Z,83.70
2019-03-16T15:55:07.192Z,82.50
2019-03-16T15:57:35.583Z,82.70
2019-03-16T16:00:07.403Z,83.80
2019-03-16T16:02:35.856Z,85.00
2019-03-16T16:05:06.076Z,84.70
2019-03-16T16:07:35.421Z,84.90
2019-03-16T16:10:06.666Z,84.40
2019-03-16T16:12:35.029Z,81.70
2019-03-16T16:15:05.723Z,82.90
2019-03-16T16:17:34.104Z,86.20
2019-03-16T16:20:02.687Z,84.70
2019-03-16T16:22:31.059Z,86.80
2019-03-16T16:24:59.446Z,85.60
2019-03-16T16:27:27.888Z,82.00
2019-03-16T16:29:56.265Z,82.40
2019-03-16T16:32:24.653Z,85.60
2019-03-16T16:34:53.042Z,82.20
2019-03-16T16:37:21.431Z,81.90
2019-03-16T16:39:49.818Z,80.60
2019-03-16T16:42:18.220Z,82.50
2019-03-16T16:44:46.598Z,86.70
2019-03-16T16:47:14.990Z,86.60
2019-03-16T16:49:43.376Z,84.30
2019-03-16T16:52:11.760Z,81.30
2019-03-16T16:54:40.450Z,82.50
2019-03-16T16:57:08.828Z,82.40
2019-03-16T16:59:37.209Z,81.60
2019-03-16T17:02:05.603Z,87.10
2019-03-16T17:04:33.999Z,86.70
2019-03-16T17:07:02.377Z,79.20
2019-03-16T17:09:30.774Z,80.50
2019-03-16T17:11:59.219Z,80.70
2019-03-16T17:14:27.620Z,80.70
2019-03-16T17:16:58.539Z,85.90
2019-03-16T17:19:26.128Z,84.90
2019-03-16T17:21:54.505Z,87.80
2019-03-16T17:24:22.905Z,88.10
2019-03-16T17:26:51.284Z,81.80
2019-03-16T17:29:19.670Z,82.90
2019-03-16T17:31:48.071Z,89.50
2019-03-16T17:34:16.455Z,84.50
2019-03-16T17:36:44.835Z,81.20
2019-03-16T17:39:13.223Z,81.70
2019-03-16T17:41:41.597Z,86.40
2019-03-16T17:44:10.003Z,87.80
2019-03-16T17:46:38.379Z,88.20
2019-03-16T17:49:06.781Z,81.60
2019-03-16T17:51:35.167Z,90.90
2019-03-16T17:54:03.568Z,85.10
2019-03-16T17:56:31.935Z,87.40
2019-03-16T17:59:00.333Z,85.50
2019-03-16T18:01:28.711Z,85.00
2019-03-16T18:03:57.106Z,88.90
2019-03-16T18:06:25.475Z,85.50
2019-03-16T18:08:53.871Z,85.50
2019-03-16T18:11:22.253Z,89.60
2019-03-16T18:13:50.654Z,87.90
2019-03-16T18:16:19.017Z,87.20
2019-03-16T18:18:47.484Z,88.20
2019-03-16T18:21:15.864Z,87.40
2019-03-16T18:23:44.267Z,84.90
2019-03-16T18:26:12.644Z,87.80
2019-03-16T18:28:41.348Z,90.60
2019-03-16T18:31:09.728Z,88.00
2019-03-16T18:33:38.113Z,86.10
2019-03-16T18:36:06.503Z,91.00
2019-03-16T18:38:34.884Z,90.80
2019-03-16T18:41:03.281Z,86.00
2019-03-16T18:43:31.659Z,90.90
2019-03-16T18:46:00.054Z,89.40
2019-03-16T18:48:30.428Z,89.60
2019-03-16T18:50:58.550Z,90.50
2019-03-16T18:53:26.932Z,88.50
2019-03-16T18:55:55.319Z,90.20
2019-03-16T18:58:36.302Z,90.80
2019-03-16T19:00:53.824Z,90.70
2019-03-16T19:03:22.223Z,85.40
2019-03-16T19:05:50.608Z,88.50
2019-03-16T19:08:18.998Z,89.50
2019-03-16T19:10:47.393Z,89.40
2019-03-16T19:13:15.786Z,90.20
2019-03-16T19:15:44.180Z,90.70
2019-03-16T19:18:12.561Z,87.20
2019-03-16T19:20:40.943Z,90.00
2019-03-16T19:23:09.356Z,90.60
2019-03-16T19:25:37.795Z,90.60
2019-03-16T19:28:06.176Z,87.60
2019-03-16T19:30:34.567Z,87.50
2019-03-16T19:33:02.952Z,88.00
2019-03-16T19:35:31.342Z,86.90
2019-03-16T19:37:59.728Z,89.60
2019-03-16T19:40:28.115Z,89.40
2019-03-16T19:42:56.502Z,90.10
2019-03-16T19:45:24.895Z,91.10
2019-03-16T19:47:53.271Z,89.60
2019-03-16T19:50:21.687Z,91.30
2019-03-16T19:52:50.068Z,91.30
2019-03-16T19:55:18.452Z,91.20
2019-03-16T19:57:46.845Z,90.60
2019-03-16T20:00:16.268Z,91.10
2019-03-16T20:02:50.098Z,91.30
2019-03-16T20:05:14.766Z,89.30
2019-03-16T20:07:43.155Z,90.20
2019-03-16T20:10:13.578Z,90.40
2019-03-16T20:12:42.040Z,90.30
2019-03-16T20:15:12.008Z,90.50
2019-03-16T20:17:40.415Z,91.40
2019-03-16T20:20:17.550Z,89.80
2019-03-16T20:22:46.007Z,89.20
2019-03-16T20:25:14.383Z,91.00
2019-03-16T20:27:42.836Z,89.30
2019-03-16T20:30:26.306Z,88.70
2019-03-16T20:32:58.508Z,89.30
2019-03-16T20:35:18.519Z,88.70
2019-03-16T20:37:46.911Z,88.40
2019-03-16T20:40:16.427Z,90.00
2019-03-16T20:42:44.817Z,89.60
2019-03-16T20:45:13.538Z,89.60
2019-03-16T20:47:42.043Z,90.00
2019-03-16T20:50:18.427Z,90.00
2019-03-16T20:52:47.105Z,90.10
2019-03-16T20:55:15.681Z,90.10
2019-03-16T20:57:44.215Z,90.00
2019-03-16T21:00:14.040Z,88.60
2019-03-16T21:02:42.447Z,88.70
2019-03-16T21:05:11.260Z,88.70
2019-03-16T21:07:39.732Z,88.60
2019-03-16T21:10:09.943Z,90.00
2019-03-16T21:12:38.336Z,88.70
2019-03-16T21:15:12.478Z,89.90
2019-03-16T21:17:40.870Z,90.10
2019-03-16T21:20:12.419Z,90.00
2019-03-16T21:22:40.803Z,90.00
2019-03-16T21:25:11.608Z,90.00
2019-03-16T21:27:39.992Z,90.00
2019-03-16T21:30:16.310Z,90.20
2019-03-16T21:32:44.720Z,90.20
2019-03-16T21:35:13.111Z,90.30
2019-03-16T21:37:41.487Z,90.30
2019-03-16T21:40:14.117Z,90.40
2019-03-16T21:42:42.543Z,90.50
2019-03-16T21:45:13.043Z,90.50
2019-03-16T21:47:41.447Z,90.50
2019-03-16T21:50:13.760Z,90.70
2019-03-16T21:52:44.452Z,90.90
2019-03-16T21:55:13.208Z,90.80
2019-03-16T21:57:41.600Z,90.90
2019-03-16T22:00:14.363Z,90.90
2019-03-16T22:02:42.738Z,90.90
2019-03-16T22:05:11.206Z,91.00
2019-03-16T22:07:39.590Z,91.00
2019-03-16T22:10:11.066Z,91.00
2019-03-16T22:12:39.448Z,90.90
2019-03-16T22:15:13.857Z,90.90
2019-03-16T22:17:42.239Z,91.20
2019-03-16T22:20:18.480Z,91.30
2019-03-16T22:22:46.874Z,91.50
2019-03-16T22:25:15.385Z,91.50
2019-03-16T22:27:43.755Z,91.40
2019-03-16T22:30:15.908Z,92.20
2019-03-16T22:32:44.358Z,92.20
2019-03-16T22:35:12.855Z,92.70
2019-03-16T22:37:41.230Z,92.50
2019-03-16T22:40:13.919Z,92.60
2019-03-16T22:42:42.283Z,92.80
2019-03-16T22:45:16.875Z,92.60
2019-03-16T22:47:45.327Z,92.50
2019-03-16T22:50:20.795Z,92.40
2019-03-16T22:52:49.163Z,92.60
2019-03-16T22:55:17.619Z,92.60
2019-03-16T22:57:46.539Z,92.40
2019-03-16T23:00:21.716Z,92.40
2019-03-16T23:02:50.091Z,92.70
2019-03-16T23:05:18.553Z,92.30
2019-03-16T23:07:46.927Z,92.20
2019-03-16T23:10:15.317Z,92.40
2019-03-16T23:12:43.688Z,92.40
2019-03-16T23:15:12.347Z,92.40
2019-03-16T23:17:40.715Z,92.40
2019-03-16T23:20:09.967Z,92.30
2019-03-16T23:22:38.331Z,91.90
2019-03-16T23:25:10.671Z,91.60
2019-03-16T23:27:39.039Z,91.50
2019-03-16T23:30:09.604Z,91.50
2019-03-16T23:32:37.231Z,91.70
2019-03-16T23:35:07.239Z,91.70
2019-03-16T23:37:35.623Z,91.50
2019-03-16T23:40:05.973Z,91.90
2019-03-16T23:42:34.361Z,91.50
2019-03-16T23:45:03.206Z,91.40
2019-03-16T23:47:31.585Z,91.60
2019-03-16T23:49:59.959Z,91.50
2019-03-16T23:52:28.348Z,91.40
2019-03-16T23:54:56.721Z,91.60
2019-03-16T23:57:25.103Z,91.70
2019-03-16T23:59:53.476Z,91.50
